Homer, Michigan
Current Conditions -  °F | °C
As of 7:53 PM on Sunday 23 Nov 2014 (Local Time) from KRMY Reporting Station
Light Rain Light Rain  
Wind Chill: 45°   Ceiling: 7000
Heat Index: 49°   Visibility: 7mi
Dew Point: 47°   Wind: 9mph
Humidity: 95%   Direction: 130°SE
Pressure: 29.43"   Gusts: NA
Location:  42.15°N, 84.81°W
Report Text: KRMY 240053Z AUTO 13008KT 100V160 7SM -RA SCT009 BKN070 OVC085 09/09 A2943 RMK AO2 P0014 T00920085
Loading
Personal Weather Stations






























Interactive Weather Map New forecast layout! Learn more

10-Day Weather Forecast

Advertisements
Track Severe Weather on mobile